Kalar Kahar Weather



Kalar Kahar's Current Weather

Temprature 39.02o clear sky

clear sky

Rain: 0 %

Min Temprature39.02o
Max Temprature39.02o
Humidity23
Wind Speed2.28 m/h
Sun Rise05:17:24
Sun Set19:13:42
Current Time: 24-Jul-2021 16:28:49
Lat/Lon: 32.7818, 72.6994




Kalar Kahar's Geo Location



Kalar Kahar's Weather Forecast

Time Overall Temp Min Temp Max Temp Humidity Wind Speed Rain
24-Jul-2021 (Sat)
17:00:00 clear sky 38.710 38.710 38.710 23 1.74 m/h 0 %
20:00:00 clear sky 37.660 35.560 37.660 26 1.96 m/h 0 %
23:00:00 clear sky 35.900 34.490 35.900 30 1.93 m/h 0 %
25-Jul-2021 (Sun)
02:00:00 clear sky 32.990 32.990 32.990 36 1.97 m/h 0 %
05:00:00 few clouds 31.370 31.370 31.370 43 1.74 m/h 0 %
08:00:00 overcast clouds 34.040 34.040 34.040 39 1.49 m/h 0 %
11:00:00 overcast clouds 37.350 37.350 37.350 31 1.53 m/h 0 %
14:00:00 clear sky 39.770 39.770 39.770 25 1.7 m/h 0 %
17:00:00 few clouds 40.150 40.150 40.150 25 2.22 m/h 0 %
20:00:00 broken clouds 37.680 37.680 37.680 31 1.42 m/h 0 %
23:00:00 broken clouds 35.600 35.600 35.600 35 3.26 m/h 0 %
26-Jul-2021 (Mon)
02:00:00 overcast clouds 32.210 32.210 32.210 54 5.31 m/h 0 %
05:00:00 broken clouds 29.580 29.580 29.580 71 4.72 m/h 0 %
08:00:00 broken clouds 30.950 30.950 30.950 65 5.22 m/h 0 %
11:00:00 broken clouds 35.250 35.250 35.250 47 3.16 m/h 0 %
14:00:00 broken clouds 38.850 38.850 38.850 34 2.58 m/h 0 %
17:00:00 broken clouds 39.210 39.210 39.210 32 4.24 m/h 0 %
20:00:00 broken clouds 36.790 36.790 36.790 37 4.12 m/h 0 %
23:00:00 broken clouds 32.040 32.040 32.040 56 7.86 m/h 0 %
27-Jul-2021 (Tue)
02:00:00 broken clouds 29.690 29.690 29.690 69 7.76 m/h 0 %
05:00:00 broken clouds 27.570 27.570 27.570 82 5.8 m/h 0 %
08:00:00 broken clouds 28.340 28.340 28.340 77 4.61 m/h 0 %
11:00:00 broken clouds 33.270 33.270 33.270 55 4.57 m/h 0 %
14:00:00 broken clouds 36.470 36.470 36.470 42 3.94 m/h 0 %
17:00:00 light rain 36.510 36.510 36.510 40 5.43 m/h 10 %
20:00:00 overcast clouds 31.140 31.140 31.140 61 8.46 m/h 0 %
23:00:00 broken clouds 27.420 27.420 27.420 77 8.78 m/h 0 %
28-Jul-2021 (Wed)
02:00:00 overcast clouds 26.470 26.470 26.470 79 6.38 m/h 0 %
05:00:00 broken clouds 25.520 25.520 25.520 82 4.29 m/h 0 %
08:00:00 light rain 26.360 26.360 26.360 81 5.14 m/h 11 %
11:00:00 light rain 29.450 29.450 29.450 67 5.71 m/h 32 %
14:00:00 light rain 30.790 30.790 30.790 61 5.98 m/h 221 %
17:00:00 light rain 28.040 28.040 28.040 74 7.65 m/h 99 %
20:00:00 light rain 25.530 25.530 25.530 84 4.9 m/h 168 %
23:00:00 light rain 25.140 25.140 25.140 84 3.01 m/h 234 %
29-Jul-2021 (Thu)
02:00:00 moderate rain 24.010 24.010 24.010 90 1 m/h 705 %
05:00:00 moderate rain 23.770 23.770 23.770 91 1.33 m/h 807 %
08:00:00 moderate rain 24.920 24.920 24.920 85 1.46 m/h 396 %
11:00:00 light rain 28.280 28.280 28.280 71 1.33 m/h 107 %
14:00:00 light rain 30.790 30.790 30.790 61 1.35 m/h 80 %

Famous Cities (60)